createdAt,value
2019-03-28T00:01:15.304Z,4.38
2019-03-28T00:04:03.480Z,4.45
2019-03-28T00:06:51.703Z,4.33
2019-03-28T00:09:40.182Z,4.42
2019-03-28T00:12:28.002Z,4.45
2019-03-28T00:15:16.287Z,4.33
2019-03-28T00:18:04.420Z,4.10
2019-03-28T00:20:52.532Z,4.19
2019-03-28T00:23:58.113Z,4.07
2019-03-28T00:26:46.540Z,4.23
2019-03-28T00:29:34.515Z,4.08
2019-03-28T00:32:22.897Z,4.05
2019-03-28T00:35:10.640Z,4.00
2019-03-28T00:37:58.668Z,4.12
2019-03-28T00:40:47.169Z,4.03
2019-03-28T00:43:35.043Z,4.11
2019-03-28T00:46:23.058Z,4.10
2019-03-28T00:49:11.552Z,4.08
2019-03-28T00:51:59.619Z,3.86
2019-03-28T00:54:48.043Z,3.71
2019-03-28T00:57:36.178Z,3.94
2019-03-28T01:00:24.580Z,3.98
2019-03-28T01:03:12.518Z,3.94
2019-03-28T01:06:00.543Z,3.75
2019-03-28T01:08:48.646Z,3.85
2019-03-28T01:11:37.097Z,3.84
2019-03-28T01:14:25.502Z,3.81
2019-03-28T01:17:13.657Z,3.83
2019-03-28T01:20:01.524Z,3.90
2019-03-28T01:22:50.588Z,3.85
2019-03-28T01:25:38.700Z,3.80
2019-03-28T01:28:26.679Z,3.68
2019-03-28T01:31:14.953Z,3.68
2019-03-28T01:34:03.340Z,3.69
2019-03-28T01:36:51.300Z,3.46
2019-03-28T01:39:39.485Z,3.68
2019-03-28T01:42:27.542Z,3.53
2019-03-28T01:45:16.429Z,3.58
2019-03-28T01:48:04.595Z,3.38
2019-03-28T01:50:52.441Z,3.42
2019-03-28T01:53:40.781Z,3.48
2019-03-28T01:56:28.715Z,3.50
2019-03-28T01:59:16.677Z,3.63
2019-03-28T02:02:04.966Z,3.73
2019-03-28T02:04:53.391Z,3.74
2019-03-28T02:07:41.353Z,3.69
2019-03-28T02:10:29.385Z,3.74
2019-03-28T02:13:17.774Z,3.68
2019-03-28T02:16:06.018Z,3.49
2019-03-28T02:18:54.337Z,3.53
2019-03-28T02:21:42.703Z,3.46
2019-03-28T02:24:30.702Z,3.53
2019-03-28T02:27:24.399Z,3.58
2019-03-28T02:30:09.636Z,3.53
2019-03-28T02:32:57.572Z,3.54
2019-03-28T02:35:46.086Z,3.61
2019-03-28T02:38:34.464Z,3.54
2019-03-28T02:41:22.885Z,3.63
2019-03-28T02:44:11.900Z,3.57
2019-03-28T02:47:00.657Z,3.30
2019-03-28T02:49:50.810Z,3.28
2019-03-28T02:52:38.962Z,3.33
2019-03-28T02:55:26.824Z,3.46
2019-03-28T02:58:14.604Z,3.54
2019-03-28T03:01:02.891Z,3.50
2019-03-28T03:03:51.293Z,3.29
2019-03-28T03:06:39.743Z,3.39
2019-03-28T03:09:28.111Z,3.35
2019-03-28T03:12:16.274Z,3.45
2019-03-28T03:15:04.656Z,3.25
2019-03-28T03:17:53.050Z,3.07
2019-03-28T03:20:40.886Z,3.15
2019-03-28T03:23:28.872Z,3.06
2019-03-28T03:26:16.555Z,3.26
2019-03-28T03:29:04.684Z,2.91
2019-03-28T03:31:53.936Z,2.98
2019-03-28T03:34:42.087Z,3.18
2019-03-28T03:37:30.366Z,3.12
2019-03-28T03:40:19.020Z,3.04
2019-03-28T03:43:07.205Z,2.94
2019-03-28T03:45:55.126Z,3.02
2019-03-28T03:48:43.452Z,3.15
2019-03-28T03:51:31.258Z,2.97
2019-03-28T03:54:19.321Z,2.98
2019-03-28T03:57:07.843Z,2.87
2019-03-28T03:59:55.482Z,2.88
2019-03-28T04:02:43.390Z,2.92
2019-03-28T04:05:32.076Z,2.93
2019-03-28T04:08:20.101Z,2.94
2019-03-28T04:11:08.238Z,2.88
2019-03-28T04:13:56.616Z,2.95
2019-03-28T04:16:45.671Z,2.93
2019-03-28T04:19:33.555Z,2.80
2019-03-28T04:22:21.429Z,2.72
2019-03-28T04:25:09.811Z,2.83
2019-03-28T04:27:58.333Z,2.64
2019-03-28T04:30:46.753Z,2.73
2019-03-28T04:33:35.759Z,2.56
2019-03-28T04:36:23.841Z,2.60
2019-03-28T04:39:12.042Z,2.44
2019-03-28T04:42:00.070Z,2.46
2019-03-28T04:44:48.173Z,2.53
2019-03-28T04:47:36.369Z,2.59
2019-03-28T04:50:24.469Z,2.38
2019-03-28T04:53:12.542Z,2.42
2019-03-28T04:56:00.650Z,2.37
2019-03-28T04:58:49.349Z,2.42
2019-03-28T05:01:37.567Z,2.49
2019-03-28T05:04:25.569Z,2.27
2019-03-28T05:07:14.094Z,2.37
2019-03-28T05:10:02.059Z,2.29
2019-03-28T05:12:49.981Z,2.57
2019-03-28T05:15:38.011Z,2.38
2019-03-28T05:18:26.527Z,2.52
2019-03-28T05:21:14.820Z,2.48
2019-03-28T05:24:03.045Z,2.42
2019-03-28T05:26:51.206Z,2.46
2019-03-28T05:29:39.222Z,2.62
2019-03-28T05:32:27.186Z,2.59
2019-03-28T05:35:15.317Z,2.70
2019-03-28T05:38:04.184Z,2.63
2019-03-28T05:40:51.995Z,2.63
2019-03-28T05:43:39.719Z,2.47
2019-03-28T05:46:27.619Z,2.59
2019-03-28T05:49:15.376Z,2.69
2019-03-28T05:52:03.561Z,3.21
2019-03-28T05:54:51.614Z,3.81
2019-03-28T05:57:39.615Z,4.44
2019-03-28T06:00:27.878Z,4.84
2019-03-28T06:03:16.363Z,4.88
2019-03-28T06:06:04.718Z,4.97
2019-03-28T06:08:53.394Z,5.01
2019-03-28T06:11:42.058Z,4.67
2019-03-28T06:14:30.063Z,4.68
2019-03-28T06:17:18.055Z,4.49
2019-03-28T06:20:07.140Z,4.30
2019-03-28T06:22:55.092Z,4.45
2019-03-28T06:25:43.191Z,5.39
2019-03-28T06:28:30.822Z,5.86
2019-03-28T06:31:18.928Z,5.73
2019-03-28T06:34:07.312Z,5.78
2019-03-28T06:36:55.535Z,6.23
2019-03-28T06:39:43.751Z,6.56
2019-03-28T06:42:32.066Z,6.26
2019-03-28T06:45:20.025Z,6.37
2019-03-28T06:48:08.254Z,6.91
2019-03-28T06:50:56.133Z,6.56
2019-03-28T06:53:44.330Z,6.62
2019-03-28T06:56:32.593Z,5.84
2019-03-28T06:59:20.839Z,6.02
2019-03-28T07:02:09.083Z,6.40
2019-03-28T07:04:57.407Z,6.70
2019-03-28T07:07:45.311Z,7.96
2019-03-28T07:10:33.630Z,7.97
2019-03-28T07:13:21.539Z,6.87
2019-03-28T07:16:09.755Z,6.98
2019-03-28T07:18:58.068Z,7.43
2019-03-28T07:21:46.326Z,7.34
2019-03-28T07:24:34.707Z,7.60
2019-03-28T07:27:22.951Z,7.17
2019-03-28T07:30:12.550Z,8.25
2019-03-28T07:33:00.918Z,8.49
2019-03-28T07:35:49.273Z,9.02
2019-03-28T07:38:37.508Z,9.71
2019-03-28T07:41:25.753Z,8.86
2019-03-28T07:44:14.343Z,9.22
2019-03-28T07:47:01.997Z,9.66
2019-03-28T07:49:49.987Z,10.11
2019-03-28T07:52:38.375Z,8.18
2019-03-28T07:55:26.562Z,8.02
2019-03-28T07:58:14.675Z,8.11
2019-03-28T08:01:02.298Z,8.61
2019-03-28T08:03:51.608Z,8.45
2019-03-28T08:06:49.742Z,8.94
2019-03-28T08:09:36.500Z,8.31
2019-03-28T08:12:23.059Z,7.78
2019-03-28T08:15:10.254Z,9.25
2019-03-28T08:17:58.530Z,9.36
2019-03-28T08:20:46.414Z,8.54
2019-03-28T08:23:35.458Z,8.55
2019-03-28T08:26:24.206Z,9.47
2019-03-28T08:29:12.479Z,8.86
2019-03-28T08:32:01.312Z,8.51
2019-03-28T08:34:50.943Z,9.38
2019-03-28T08:37:40.660Z,9.75
2019-03-28T08:40:39.767Z,9.42
2019-03-28T08:43:26.772Z,9.42
2019-03-28T08:46:15.150Z,9.15
2019-03-28T08:49:03.722Z,9.54
2019-03-28T08:51:52.308Z,9.49
2019-03-28T08:54:40.321Z,9.78
2019-03-28T08:57:28.310Z,10.18
2019-03-28T09:00:17.334Z,10.11
2019-03-28T09:03:05.719Z,9.32
2019-03-28T09:05:53.759Z,9.04
2019-03-28T09:08:42.259Z,9.22
2019-03-28T09:11:30.779Z,9.23
2019-03-28T09:14:19.048Z,9.16
2019-03-28T09:17:06.728Z,9.25
2019-03-28T09:19:54.676Z,9.33
2019-03-28T09:22:42.580Z,9.41
2019-03-28T09:25:30.219Z,9.52
2019-03-28T09:28:17.778Z,9.45
2019-03-28T09:31:18.937Z,9.29
2019-03-28T09:33:55.822Z,9.26
2019-03-28T09:36:44.317Z,9.20
2019-03-28T09:39:32.660Z,9.41
2019-03-28T09:42:21.213Z,9.70
2019-03-28T09:45:09.633Z,9.52
2019-03-28T09:47:57.693Z,9.52
2019-03-28T09:50:45.608Z,9.75
2019-03-28T09:53:33.640Z,9.90
2019-03-28T09:56:21.721Z,9.89
2019-03-28T09:59:09.933Z,10.23
2019-03-28T10:01:57.971Z,10.28
2019-03-28T10:04:46.524Z,10.11
2019-03-28T10:07:34.490Z,10.39
2019-03-28T10:10:22.882Z,10.64
2019-03-28T10:13:10.846Z,10.75
2019-03-28T10:15:59.294Z,10.75
2019-03-28T10:18:47.535Z,10.99
2019-03-28T10:21:37.658Z,11.02
2019-03-28T10:24:25.524Z,11.10
2019-03-28T10:27:13.612Z,10.97
2019-03-28T10:30:02.637Z,10.81
2019-03-28T10:32:50.302Z,10.96
2019-03-28T10:35:38.484Z,10.67
2019-03-28T10:38:26.677Z,10.55
2019-03-28T10:41:14.990Z,10.49
2019-03-28T10:44:03.372Z,10.71
2019-03-28T10:46:51.595Z,10.76
2019-03-28T10:49:39.715Z,10.88
2019-03-28T10:52:27.566Z,11.03
2019-03-28T10:55:16.598Z,10.85
2019-03-28T10:58:17.657Z,11.16
2019-03-28T11:00:55.828Z,11.23
2019-03-28T11:03:44.430Z,11.21
2019-03-28T11:06:32.705Z,11.23
2019-03-28T11:09:20.834Z,11.51
2019-03-28T11:12:09.102Z,11.58
2019-03-28T11:14:56.864Z,11.60
2019-03-28T11:17:44.852Z,11.47
2019-03-28T11:20:33.254Z,11.78
2019-03-28T11:23:21.211Z,11.87
2019-03-28T11:26:09.381Z,11.88
2019-03-28T11:29:00.819Z,12.09
2019-03-28T11:31:51.929Z,11.74
2019-03-28T11:34:37.681Z,11.81
2019-03-28T11:37:26.844Z,11.68
2019-03-28T11:40:17.204Z,12.03
2019-03-28T11:43:05.380Z,12.04
2019-03-28T11:45:53.773Z,12.14
2019-03-28T11:48:41.610Z,12.29
2019-03-28T11:51:30.560Z,12.28
2019-03-28T11:54:18.692Z,12.29
2019-03-28T11:57:07.058Z,12.34
2019-03-28T11:59:57.981Z,12.44
2019-03-28T12:02:45.094Z,12.38
2019-03-28T12:05:33.065Z,12.10
2019-03-28T12:08:21.106Z,12.28
2019-03-28T12:11:09.505Z,12.35
2019-03-28T12:13:59.674Z,12.18
2019-03-28T12:16:49.781Z,12.31
2019-03-28T12:19:37.893Z,12.34
2019-03-28T12:22:25.861Z,12.46
2019-03-28T12:25:14.350Z,12.44
2019-03-28T12:28:02.595Z,12.35
2019-03-28T12:30:51.887Z,12.42
2019-03-28T12:33:39.715Z,12.44
2019-03-28T12:36:27.545Z,12.39
2019-03-28T12:39:16.011Z,12.46
2019-03-28T12:42:04.157Z,12.44
2019-03-28T12:44:57.368Z,12.71
2019-03-28T12:47:43.411Z,12.65
2019-03-28T12:50:30.958Z,12.56
2019-03-28T12:53:19.150Z,12.67
2019-03-28T12:56:07.077Z,12.82
2019-03-28T12:58:55.352Z,12.74
2019-03-28T13:01:43.875Z,12.87
2019-03-28T13:04:31.896Z,12.78
2019-03-28T13:07:20.570Z,12.76
2019-03-28T13:10:09.224Z,12.80
2019-03-28T13:12:58.996Z,12.68
2019-03-28T13:15:47.254Z,12.77
2019-03-28T13:18:36.157Z,12.90
2019-03-28T13:21:24.270Z,13.19
2019-03-28T13:24:11.886Z,13.35
2019-03-28T13:27:00.266Z,13.04
2019-03-28T13:29:49.185Z,13.05
2019-03-28T13:32:42.133Z,13.15
2019-03-28T13:35:26.826Z,13.26
2019-03-28T13:38:15.185Z,13.36
2019-03-28T13:41:03.407Z,13.38
2019-03-28T13:43:51.892Z,13.36
2019-03-28T13:46:40.169Z,13.32
2019-03-28T13:49:28.225Z,13.44
2019-03-28T13:52:16.522Z,13.30
2019-03-28T13:55:04.763Z,13.26
2019-03-28T13:57:53.381Z,13.33
2019-03-28T14:00:41.585Z,13.39
2019-03-28T14:03:29.571Z,13.48
2019-03-28T14:06:17.841Z,13.66
2019-03-28T14:09:07.343Z,13.87
2019-03-28T14:11:54.898Z,14.07
2019-03-28T14:14:42.756Z,14.01
2019-03-28T14:17:30.864Z,13.78
2019-03-28T14:20:22.228Z,13.62
2019-03-28T14:23:08.662Z,13.71
2019-03-28T14:25:56.359Z,13.85
2019-03-28T14:28:44.175Z,13.86
2019-03-28T14:31:32.183Z,13.75
2019-03-28T14:34:20.221Z,13.55
2019-03-28T14:37:07.852Z,13.24
2019-03-28T14:39:56.087Z,13.15
2019-03-28T14:42:44.587Z,12.99
2019-03-28T14:45:32.939Z,13.00
2019-03-28T14:48:21.485Z,13.27
2019-03-28T14:51:09.265Z,13.36
2019-03-28T14:53:57.626Z,13.07
2019-03-28T14:56:45.939Z,12.88
2019-03-28T14:59:34.669Z,12.92
2019-03-28T15:02:22.852Z,13.16
2019-03-28T15:05:10.637Z,13.26
2019-03-28T15:07:58.747Z,13.32
2019-03-28T15:10:46.716Z,13.30
2019-03-28T15:13:34.589Z,13.28
2019-03-28T15:16:22.774Z,13.42
2019-03-28T15:19:11.018Z,13.37
2019-03-28T15:21:59.432Z,13.49
2019-03-28T15:24:47.883Z,13.54
2019-03-28T15:27:36.201Z,13.45
2019-03-28T15:30:24.189Z,13.30
2019-03-28T15:33:12.679Z,13.33
2019-03-28T15:36:00.750Z,13.14
2019-03-28T15:38:51.072Z,12.91
2019-03-28T15:41:39.008Z,12.75
2019-03-28T15:44:26.993Z,12.67
2019-03-28T15:47:15.040Z,12.62
2019-03-28T15:50:03.682Z,12.60
2019-03-28T15:52:54.167Z,12.76
2019-03-28T15:55:42.650Z,12.89
2019-03-28T15:58:30.778Z,12.80
2019-03-28T16:01:18.410Z,12.63
2019-03-28T16:04:06.479Z,12.73
2019-03-28T16:06:54.489Z,12.76
2019-03-28T16:09:42.630Z,12.77
2019-03-28T16:12:30.635Z,12.72
2019-03-28T16:15:18.770Z,12.76
2019-03-28T16:18:06.504Z,12.80
2019-03-28T16:20:54.715Z,12.67
2019-03-28T16:23:42.416Z,12.73
2019-03-28T16:26:30.772Z,12.74
2019-03-28T16:29:19.317Z,12.74
2019-03-28T16:32:07.596Z,12.76
2019-03-28T16:34:55.856Z,12.72
2019-03-28T16:37:43.698Z,12.73
2019-03-28T16:40:31.766Z,12.68
2019-03-28T16:43:20.012Z,12.60
2019-03-28T16:46:08.477Z,12.58
2019-03-28T16:48:56.382Z,12.56
2019-03-28T16:51:44.132Z,12.48
2019-03-28T16:54:31.950Z,12.43
2019-03-28T16:57:20.296Z,12.34
2019-03-28T17:00:11.186Z,12.27
2019-03-28T17:02:59.175Z,12.21
2019-03-28T17:05:47.302Z,12.17
2019-03-28T17:08:35.490Z,12.07
2019-03-28T17:11:23.967Z,11.92
2019-03-28T17:14:11.930Z,11.87
2019-03-28T17:16:59.895Z,11.82
2019-03-28T17:19:48.414Z,11.80
2019-03-28T17:22:37.182Z,11.68
2019-03-28T17:25:25.483Z,11.63
2019-03-28T17:28:13.610Z,11.65
2019-03-28T17:31:02.209Z,11.59
2019-03-28T17:33:50.500Z,11.60
2019-03-28T17:36:38.953Z,11.44
2019-03-28T17:39:27.106Z,11.35
2019-03-28T17:42:15.044Z,11.37
2019-03-28T17:45:03.045Z,11.36
2019-03-28T17:47:51.134Z,11.26
2019-03-28T17:50:39.174Z,11.10
2019-03-28T17:53:27.526Z,11.28
2019-03-28T17:56:15.967Z,11.06
2019-03-28T17:59:04.419Z,11.06
2019-03-28T18:01:52.643Z,11.01
2019-03-28T18:04:47.848Z,10.91
2019-03-28T18:07:30.628Z,10.96
2019-03-28T18:10:19.037Z,10.89
2019-03-28T18:13:07.539Z,10.97
2019-03-28T18:15:55.758Z,10.88
2019-03-28T18:18:43.696Z,10.86
2019-03-28T18:21:31.954Z,10.86
2019-03-28T18:24:20.187Z,10.81
2019-03-28T18:27:08.946Z,10.62
2019-03-28T18:29:57.064Z,10.51
2019-03-28T18:32:45.334Z,10.45
2019-03-28T18:35:33.021Z,10.43
2019-03-28T18:38:21.099Z,10.50
2019-03-28T18:41:09.150Z,10.42
2019-03-28T18:43:57.076Z,10.34
2019-03-28T18:46:44.853Z,10.34
2019-03-28T18:49:33.018Z,10.31
2019-03-28T18:52:20.625Z,10.18
2019-03-28T18:55:09.580Z,10.21
2019-03-28T18:57:57.595Z,10.21
2019-03-28T19:00:48.057Z,10.00
2019-03-28T19:03:34.941Z,9.98
2019-03-28T19:06:22.683Z,9.90
2019-03-28T19:09:10.855Z,10.01
2019-03-28T19:11:59.155Z,9.92
2019-03-28T19:14:47.045Z,9.93
2019-03-28T19:17:35.254Z,9.94
2019-03-28T19:20:23.660Z,9.70
2019-03-28T19:23:11.714Z,9.81
2019-03-28T19:26:00.812Z,9.65
2019-03-28T19:28:48.619Z,9.72
2019-03-28T19:31:36.474Z,9.57
2019-03-28T19:37:26.701Z,9.37
2019-03-28T19:40:15.440Z,9.57
2019-03-28T19:43:03.442Z,9.50
2019-03-28T19:45:52.116Z,9.57
2019-03-28T19:48:41.887Z,9.56
2019-03-28T19:51:30.051Z,9.48
2019-03-28T19:54:17.766Z,9.47
2019-03-28T19:57:08.507Z,9.32
2019-03-28T19:59:58.627Z,9.36
2019-03-28T20:02:49.046Z,9.13
2019-03-28T20:05:47.347Z,9.16
2019-03-28T20:08:27.622Z,9.16
2019-03-28T20:11:15.320Z,9.15
2019-03-28T20:14:03.362Z,9.17
2019-03-28T20:16:51.876Z,9.12
2019-03-28T20:19:40.528Z,9.10
2019-03-28T20:22:28.808Z,9.02
2019-03-28T20:25:16.841Z,8.96
2019-03-28T20:28:04.971Z,9.05
2019-03-28T20:30:53.937Z,9.00
2019-03-28T20:33:42.325Z,8.86
2019-03-28T20:36:37.678Z,8.92
2019-03-28T20:39:20.020Z,8.86
2019-03-28T20:42:08.946Z,8.84
2019-03-28T20:44:57.207Z,8.68
2019-03-28T20:47:44.927Z,8.87
2019-03-28T20:50:33.383Z,8.78
2019-03-28T20:53:21.508Z,8.77
2019-03-28T20:56:09.655Z,8.63
2019-03-28T20:58:57.525Z,8.71
2019-03-28T21:01:46.092Z,8.62
2019-03-28T21:04:34.697Z,8.72
2019-03-28T21:07:23.021Z,8.69
2019-03-28T21:10:25.096Z,8.60
2019-03-28T21:13:13.051Z,8.54
2019-03-28T21:16:01.423Z,8.56
2019-03-28T21:18:49.965Z,8.48
2019-03-28T21:21:38.249Z,8.45
2019-03-28T21:24:26.343Z,8.40
2019-03-28T21:27:14.522Z,8.38
2019-03-28T21:30:03.442Z,8.43
2019-03-28T21:32:55.621Z,8.41
2019-03-28T21:35:41.136Z,8.42
2019-03-28T21:38:30.365Z,8.40
2019-03-28T21:41:18.315Z,8.30
2019-03-28T21:44:06.379Z,8.40
2019-03-28T21:46:54.474Z,8.27
2019-03-28T21:49:43.151Z,8.22
2019-03-28T21:52:31.459Z,8.19
2019-03-28T21:55:19.501Z,7.99
2019-03-28T21:58:07.693Z,8.08
2019-03-28T22:00:55.575Z,8.13
2019-03-28T22:03:43.448Z,8.12
2019-03-28T22:06:42.455Z,8.00
2019-03-28T22:09:21.166Z,7.91
2019-03-28T22:12:09.283Z,7.88
2019-03-28T22:14:57.589Z,7.88
2019-03-28T22:17:45.988Z,7.80
2019-03-28T22:20:33.986Z,7.87
2019-03-28T22:23:22.100Z,7.88
2019-03-28T22:26:10.734Z,7.79
2019-03-28T22:28:59.222Z,7.73
2019-03-28T22:31:47.113Z,7.68
2019-03-28T22:34:34.954Z,7.74
2019-03-28T22:37:22.858Z,7.76
2019-03-28T22:40:12.065Z,7.76
2019-03-28T22:43:00.126Z,7.74
2019-03-28T22:45:48.612Z,7.74
2019-03-28T22:48:36.829Z,7.68
2019-03-28T22:51:24.784Z,7.61
2019-03-28T22:54:12.790Z,7.67
2019-03-28T22:57:00.655Z,7.56
2019-03-28T22:59:48.783Z,7.60
2019-03-28T23:02:37.241Z,7.49
2019-03-28T23:05:25.552Z,7.48
2019-03-28T23:08:13.950Z,7.41
2019-03-28T23:11:02.065Z,7.43
2019-03-28T23:13:50.769Z,7.42
2019-03-28T23:16:38.277Z,7.35
2019-03-28T23:19:26.370Z,7.39
2019-03-28T23:22:14.439Z,7.38
2019-03-28T23:25:02.802Z,7.27
2019-03-28T23:27:51.043Z,7.22
2019-03-28T23:30:39.051Z,7.21
2019-03-28T23:33:27.074Z,7.08
2019-03-28T23:36:15.146Z,7.18
2019-03-28T23:39:04.272Z,7.08
2019-03-28T23:41:52.648Z,6.98
2019-03-28T23:44:40.519Z,6.98
2019-03-28T23:47:29.986Z,6.91
2019-03-28T23:50:18.460Z,6.88
2019-03-28T23:53:06.453Z,6.88
2019-03-28T23:55:54.484Z,6.85
2019-03-28T23:58:42.423Z,6.89
